Time;durP1;ratioP1;P1;durP2;ratioP2;P2;SDS_P1;SDS_P2;PMS_P1;PMS_P2;Temp;Humidity;BMP_temperature;BMP_pressure;BME280_temperature;BME280_humidity;BME280_pressure;Samples;Min_cycle;Max_cycle;Signal;HPM_P1;HPM_P2
2023/03/04 00:01:30;;;;;;;31.43;17.97;;;;;;;5.73;94.57;97052.50;5067828;28;20194;-72
2023/03/04 00:03:57;;;;;;;30.87;16.30;;;;;;;5.73;93.27;97042.22;5066205;28;20203;-72
2023/03/04 00:06:24;;;;;;;35.17;18.43;;;;;;;5.72;93.40;97036.28;5049672;28;20654;-74
2023/03/04 00:08:51;;;;;;;33.83;19.70;;;;;;;5.72;93.61;97028.56;5066322;28;20551;-72
2023/03/04 00:11:18;;;;;;;34.13;18.33;;;;;;;5.60;94.11;97025.47;5049025;28;20199;-72
2023/03/04 00:13:45;;;;;;;31.80;16.80;;;;;;;5.53;94.27;97021.38;5048906;28;20252;-75
2023/03/04 00:16:13;;;;;;;35.67;18.07;;;;;;;5.52;94.15;97035.94;5066361;28;20280;-74
2023/03/04 00:18:40;;;;;;;28.60;16.07;;;;;;;5.63;93.16;97030.53;5067259;28;20190;-73
2023/03/04 00:21:07;;;;;;;31.73;17.13;;;;;;;5.70;93.32;97034.63;5065864;28;20228;-73
2023/03/04 00:23:34;;;;;;;28.67;16.97;;;;;;;5.74;93.35;97033.66;5067222;28;20650;-72
2023/03/04 00:26:01;;;;;;;28.67;16.77;;;;;;;5.80;93.60;97028.34;5065940;28;20185;-73
2023/03/04 00:28:28;;;;;;;28.37;17.93;;;;;;;5.72;93.88;97025.16;5067004;28;20190;-73
2023/03/04 00:30:55;;;;;;;30.03;16.40;;;;;;;5.77;93.05;97041.25;5066442;28;20191;-73
2023/03/04 00:33:22;;;;;;;24.57;14.67;;;;;;;5.68;93.57;97031.25;5066519;28;20281;-74
2023/03/04 00:35:49;;;;;;;25.80;15.70;;;;;;;5.80;93.35;97036.06;5048898;28;20603;-73
2023/03/04 00:38:16;;;;;;;28.10;15.97;;;;;;;5.90;92.69;97022.09;5065967;28;20260;-74
2023/03/04 00:40:43;;;;;;;29.60;15.87;;;;;;;5.90;92.01;97029.81;5067165;28;20186;-72
2023/03/04 00:43:10;;;;;;;30.83;17.83;;;;;;;5.74;92.71;97021.66;5065760;28;20621;-73
2023/03/04 00:45:37;;;;;;;26.57;16.27;;;;;;;5.66;92.68;97023.59;5066288;28;20290;-74
2023/03/04 00:48:04;;;;;;;26.03;15.97;;;;;;;5.71;92.42;97023.44;5066012;28;20190;-73
2023/03/04 00:50:31;;;;;;;30.27;16.47;;;;;;;5.78;92.93;97023.25;5048475;28;20265;-72
2023/03/04 00:52:58;;;;;;;29.80;16.07;;;;;;;5.79;92.57;97024.09;5066698;28;20239;-74
2023/03/04 00:55:25;;;;;;;25.60;15.80;;;;;;;5.95;93.15;97027.97;5047977;28;20690;-74
2023/03/04 00:57:52;;;;;;;27.73;15.67;;;;;;;5.95;92.30;97009.97;5049049;28;20236;-74
2023/03/04 01:00:20;;;;;;;31.07;17.50;;;;;;;5.95;92.43;97004.00;5066047;28;20603;-73
2023/03/04 01:02:47;;;;;;;28.87;16.70;;;;;;;6.04;92.79;97014.03;5049314;28;20300;-74
2023/03/04 01:05:14;;;;;;;27.83;15.60;;;;;;;6.10;91.61;97013.84;5031284;28;20206;-74
2023/03/04 01:07:42;;;;;;;29.63;16.97;;;;;;;6.17;91.96;97010.19;5066403;28;20191;-74
2023/03/04 01:10:10;;;;;;;29.23;17.07;;;;;;;6.18;92.07;97001.63;5066502;28;20219;-73
2023/03/04 01:12:40;;;;;;;33.77;18.60;;;;;;;6.22;92.25;97018.63;5048094;28;20199;-73
2023/03/04 01:15:09;;;;;;;28.83;16.30;;;;;;;6.22;90.97;97016.88;5048830;28;20182;-74
2023/03/04 01:17:38;;;;;;;28.53;15.77;;;;;;;6.19;91.53;97014.41;5047379;28;20671;-73
2023/03/04 01:20:07;;;;;;;35.43;18.03;;;;;;;6.21;91.23;97015.22;5032152;28;20226;-73
2023/03/04 01:22:35;;;;;;;27.70;15.00;;;;;;;6.11;91.12;97002.66;5065859;28;20194;-72
2023/03/04 01:25:02;;;;;;;24.77;15.40;;;;;;;6.18;92.03;97002.44;5048397;28;20585;-72
2023/03/04 01:27:31;;;;;;;29.37;16.20;;;;;;;6.25;90.79;97003.09;5066433;28;20229;-71
2023/03/04 01:29:58;;;;;;;25.70;14.53;;;;;;;6.24;90.31;97007.41;5047620;28;20192;-73
2023/03/04 01:32:25;;;;;;;24.90;14.23;;;;;;;6.13;90.89;97004.31;5066662;28;20219;-72
2023/03/04 01:34:52;;;;;;;27.50;16.07;;;;;;;6.12;91.38;96999.22;5065491;28;20186;-72
2023/03/04 01:37:19;;;;;;;27.27;14.43;;;;;;;6.13;90.72;97001.75;5048714;28;20296;-72
2023/03/04 01:39:46;;;;;;;27.27;16.70;;;;;;;6.14;90.67;97000.84;5065444;28;20673;-72
2023/03/04 01:42:19;;;;;;;26.53;16.10;;;;;;;6.11;91.28;97000.94;5066086;28;20184;-72
2023/03/04 01:44:47;;;;;;;28.87;15.63;;;;;;;6.13;90.37;97001.75;5048239;28;20189;-76
2023/03/04 01:47:14;;;;;;;26.97;16.83;;;;;;;6.11;91.75;96993.22;5065458;28;20201;-74
2023/03/04 01:49:41;;;;;;;34.13;18.57;;;;;;;6.05;92.24;97001.13;5048426;28;20187;-73
2023/03/04 01:52:12;;;;;;;29.00;17.47;;;;;;;6.17;92.30;96997.34;5065099;28;20637;-76
2023/03/04 01:54:40;;;;;;;32.30;17.20;;;;;;;6.17;91.37;96995.63;5066349;28;20274;-76
2023/03/04 01:57:19;;;;;;;27.40;16.93;;;;;;;5.96;91.23;96985.09;5065755;28;20676;-76
2023/03/04 01:59:47;;;;;;;28.80;16.33;;;;;;;6.03;92.12;97002.03;5051305;28;20197;-76
2023/03/04 02:02:14;;;;;;;29.37;16.33;;;;;;;6.05;91.50;97001.13;5069631;28;20195;-74
2023/03/04 02:04:41;;;;;;;27.23;15.57;;;;;;;6.00;92.56;96994.41;5050844;28;20257;-74
2023/03/04 02:07:09;;;;;;;29.43;16.97;;;;;;;5.83;91.82;96974.31;5069602;28;20566;-72
2023/03/04 02:09:36;;;;;;;32.37;17.87;;;;;;;5.96;91.42;96985.09;5050726;28;20202;-74
2023/03/04 02:12:03;;;;;;;35.97;19.30;;;;;;;6.00;92.20;96986.69;5069444;28;20234;-75
2023/03/04 02:14:31;;;;;;;27.60;16.67;;;;;;;5.93;91.78;96980.91;5068841;28;20275;-72
2023/03/04 02:16:58;;;;;;;26.80;16.33;;;;;;;5.97;91.40;96984.22;5050831;28;20249;-73
2023/03/04 02:19:44;;;;;;;27.63;14.57;;;;;;;5.89;92.16;96989.59;5069117;28;20191;-72
2023/03/04 02:22:11;;;;;;;28.23;15.20;;;;;;;5.91;91.57;96992.97;5033502;28;20203;-73
2023/03/04 02:24:42;;;;;;;29.40;16.00;;;;;;;5.75;92.35;96986.50;5069466;28;20201;-73
2023/03/04 02:27:09;;;;;;;29.37;16.13;;;;;;;5.82;92.28;96988.03;5049870;28;20686;-73
2023/03/04 02:29:37;;;;;;;39.20;20.87;;;;;;;5.90;91.57;97000.69;5068990;28;20194;-73
2023/03/04 02:32:04;;;;;;;38.03;21.90;;;;;;;5.88;92.12;97002.47;5069191;28;20731;-74
2023/03/04 02:34:34;;;;;;;37.13;19.50;;;;;;;5.79;91.47;96983.81;5033800;28;20684;-73
2023/03/04 02:37:03;;;;;;;31.80;17.73;;;;;;;5.87;91.52;96990.53;5068996;28;20235;-73
2023/03/04 02:39:43;;;;;;;25.83;16.37;;;;;;;5.90;91.81;96993.84;5049922;28;20182;-73
2023/03/04 02:42:11;;;;;;;29.40;15.97;;;;;;;5.66;90.85;96968.81;5051170;28;20225;-73
2023/03/04 02:44:46;;;;;;;27.77;15.23;;;;;;;5.82;91.05;96987.19;5068553;28;20192;-73
2023/03/04 02:47:19;;;;;;;20.37;12.60;;;;;;;5.78;91.94;97001.84;5050403;28;20194;-73
2023/03/04 02:49:48;;;;;;;24.47;12.50;;;;;;;5.68;91.80;96990.16;5068720;28;20187;-73
2023/03/04 02:52:23;;;;;;;21.50;12.23;;;;;;;5.52;91.02;97004.28;5033174;28;20199;-73
2023/03/04 02:54:50;;;;;;;19.13;11.67;;;;;;;5.58;92.39;96996.44;5068749;28;20657;-73
2023/03/04 02:57:18;;;;;;;21.90;12.20;;;;;;;5.60;92.49;96992.09;5049668;28;20218;-72
2023/03/04 02:59:50;;;;;;;21.80;13.37;;;;;;;5.62;92.19;96990.31;5050421;28;20185;-72
2023/03/04 03:02:20;;;;;;;22.93;13.20;;;;;;;5.38;92.83;97006.38;5050571;28;20181;-72
2023/03/04 03:04:47;;;;;;;25.87;14.50;;;;;;;5.41;92.62;97004.56;5067574;28;20600;-73
2023/03/04 03:07:17;;;;;;;25.00;15.10;;;;;;;5.40;93.39;96990.03;5068647;28;20582;-75
2023/03/04 03:09:44;;;;;;;23.40;13.30;;;;;;;5.57;93.83;96987.03;5049021;28;20230;-75
2023/03/04 03:12:11;;;;;;;26.87;16.00;;;;;;;5.73;92.79;96988.28;5068388;28;20187;-73
2023/03/04 03:14:38;;;;;;;24.30;14.13;;;;;;;5.70;92.36;96999.50;5049308;28;20780;-73
2023/03/04 03:17:08;;;;;;;24.87;15.53;;;;;;;5.72;92.17;96992.59;5050047;28;20232;-73
2023/03/04 03:19:34;;;;;;;28.37;15.43;;;;;;;5.78;91.70;96986.44;5049836;28;20706;-73
2023/03/04 03:22:05;;;;;;;25.43;15.83;;;;;;;5.87;91.41;96999.06;5049522;28;20568;-73
2023/03/04 03:24:32;;;;;;;23.73;15.23;;;;;;;5.74;91.50;96984.84;5050304;28;20188;-73
2023/03/04 03:26:59;;;;;;;24.57;15.23;;;;;;;5.69;91.71;96986.69;5066894;28;20195;-74
2023/03/04 03:29:26;;;;;;;24.53;14.97;;;;;;;5.84;92.26;96991.44;5068258;28;20836;-72
2023/03/04 03:31:53;;;;;;;26.23;15.07;;;;;;;5.84;91.08;96999.16;5067222;28;20752;-76
2023/03/04 03:34:20;;;;;;;24.73;13.83;;;;;;;5.86;91.13;97002.50;5049978;28;20187;-75
2023/03/04 03:36:48;;;;;;;21.67;13.27;;;;;;;5.86;91.17;96997.38;5049554;28;20592;-74
2023/03/04 03:39:15;;;;;;;20.93;12.97;;;;;;;5.85;91.38;97000.84;5049283;28;20216;-74
2023/03/04 03:41:42;;;;;;;24.20;13.17;;;;;;;5.78;91.18;97007.00;5067775;28;20191;-74
2023/03/04 03:44:09;;;;;;;23.03;13.60;;;;;;;5.85;92.12;97013.69;5066772;28;20621;-73
2023/03/04 03:46:36;;;;;;;24.23;14.10;;;;;;;5.79;91.09;97018.94;5050077;28;20219;-76
2023/03/04 03:49:03;;;;;;;24.37;14.97;;;;;;;5.71;90.76;97020.88;5066738;28;20220;-74
2023/03/04 03:51:30;;;;;;;29.60;16.10;;;;;;;5.69;90.65;97025.22;5067629;28;20578;-73
2023/03/04 03:53:57;;;;;;;26.10;14.43;;;;;;;5.76;90.31;97029.31;5067134;28;20197;-75
2023/03/04 03:56:24;;;;;;;25.70;14.47;;;;;;;5.67;90.77;97015.00;5032704;28;20274;-72
2023/03/04 03:58:51;;;;;;;24.17;14.90;;;;;;;5.62;90.87;97016.84;5049425;28;20255;-73
2023/03/04 04:01:18;;;;;;;24.67;14.67;;;;;;;5.62;91.68;97016.00;5066548;28;20245;-72
2023/03/04 04:03:45;;;;;;;30.73;15.17;;;;;;;5.64;91.83;97019.38;5067570;28;20736;-72
2023/03/04 04:06:12;;;;;;;25.60;14.80;;;;;;;5.64;91.89;97022.78;5066373;28;20362;-72
2023/03/04 04:08:39;;;;;;;21.30;12.27;;;;;;;5.64;92.41;97019.38;5049784;28;20219;-73
2023/03/04 04:11:09;;;;;;;17.70;10.77;;;;;;;5.55;91.71;97014.47;5048145;28;20195;-73
2023/03/04 04:13:36;;;;;;;20.73;10.97;;;;;;;5.52;91.12;97017.13;5066742;28;20282;-73
2023/03/04 04:16:05;;;;;;;17.77;11.47;;;;;;;5.45;92.55;97018.16;5067049;28;20282;-71
2023/03/04 04:18:32;;;;;;;21.97;12.53;;;;;;;5.64;92.10;97016.81;5065895;28;20231;-73
2023/03/04 04:20:59;;;;;;;21.30;12.60;;;;;;;5.32;91.10;96975.72;5066163;28;20226;-72
2023/03/04 04:23:26;;;;;;;16.97;10.63;;;;;;;5.55;91.32;97015.31;5065641;28;20195;-73
2023/03/04 04:25:54;;;;;;;19.33;11.63;;;;;;;5.57;91.73;97018.69;5067023;28;20178;-73
2023/03/04 04:28:22;;;;;;;19.90;11.20;;;;;;;5.57;91.99;97017.84;5031607;28;20194;-73
2023/03/04 04:30:49;;;;;;;20.53;13.50;;;;;;;5.57;91.27;97007.56;5066632;28;20208;-73
2023/03/04 04:33:16;;;;;;;22.90;13.13;;;;;;;5.54;92.03;97013.63;5066820;28;20195;-74
2023/03/04 04:35:43;;;;;;;24.07;13.20;;;;;;;5.49;91.86;97015.47;5065957;28;20279;-73
2023/03/04 04:38:10;;;;;;;24.80;13.33;;;;;;;5.50;92.08;97012.03;5066840;28;20232;-71
2023/03/04 04:40:37;;;;;;;25.00;13.80;;;;;;;5.54;92.50;97010.25;5047595;28;20282;-71
2023/03/04 04:43:04;;;;;;;20.53;13.20;;;;;;;5.44;91.85;97012.19;5066792;28;20738;-72
2023/03/04 04:45:31;;;;;;;23.47;13.47;;;;;;;5.53;92.29;97016.25;5047865;28;20195;-72
2023/03/04 04:47:58;;;;;;;26.07;14.00;;;;;;;5.43;92.23;97004.53;5066013;28;20633;-74
2023/03/04 04:50:26;;;;;;;27.30;14.47;;;;;;;5.59;91.67;97021.22;5066438;28;20724;-73
2023/03/04 04:52:53;;;;;;;24.93;14.63;;;;;;;5.44;92.67;97014.75;5047668;28;20189;-72
2023/03/04 04:55:20;;;;;;;27.07;15.70;;;;;;;5.55;92.30;97019.59;5048974;28;20191;-73
2023/03/04 04:57:47;;;;;;;27.30;15.70;;;;;;;5.61;91.46;97029.72;5065388;28;20745;-76
2023/03/04 05:00:15;;;;;;;23.07;15.17;;;;;;;5.67;92.12;97029.56;5066659;28;20192;-73
2023/03/04 05:02:42;;;;;;;25.80;15.37;;;;;;;5.69;90.69;97035.50;5065847;28;20222;-73
2023/03/04 05:05:09;;;;;;;29.23;17.13;;;;;;;5.58;91.02;97032.38;5066340;28;20194;-74
2023/03/04 05:07:36;;;;;;;25.50;14.30;;;;;;;5.51;92.55;97028.28;5064259;28;20194;-73
2023/03/04 05:10:04;;;;;;;29.97;16.43;;;;;;;5.52;92.05;97029.97;5045599;28;20222;-74
2023/03/04 05:12:31;;;;;;;29.10;16.77;;;;;;;5.65;91.79;97041.59;5028769;28;20180;-72
2023/03/04 05:14:58;;;;;;;26.50;17.20;;;;;;;5.72;91.11;97040.56;5027386;28;20278;-72
2023/03/04 05:17:25;;;;;;;30.50;17.87;;;;;;;5.70;92.07;97039.75;5046469;28;20227;-74
2023/03/04 05:19:52;;;;;;;29.17;17.90;;;;;;;5.71;91.74;97033.72;5045399;28;20226;-72
2023/03/04 05:22:19;;;;;;;31.07;15.77;;;;;;;5.74;91.29;97036.22;5046380;28;20280;-75
2023/03/04 05:24:46;;;;;;;27.83;15.60;;;;;;;5.71;91.74;97020.88;5046062;28;20594;-73
2023/03/04 05:27:13;;;;;;;26.70;15.33;;;;;;;5.79;91.97;97029.22;5045766;28;20188;-74
2023/03/04 05:29:41;;;;;;;26.63;16.20;;;;;;;5.77;91.87;97038.69;5046307;28;20191;-72
2023/03/04 05:32:10;;;;;;;26.57;14.90;;;;;;;5.67;91.32;97035.53;5029200;28;20299;-74
2023/03/04 05:34:37;;;;;;;27.77;15.27;;;;;;;5.77;91.84;97033.56;5032294;28;20661;-72
2023/03/04 05:37:04;;;;;;;24.37;14.30;;;;;;;5.84;91.21;97035.13;5014738;28;20196;-73
2023/03/04 05:39:31;;;;;;;30.00;15.90;;;;;;;5.92;91.17;97027.19;5032513;28;20283;-73
2023/03/04 05:41:58;;;;;;;27.60;15.23;;;;;;;5.94;91.50;97039.13;5031935;28;20219;-74
2023/03/04 05:44:25;;;;;;;24.47;14.70;;;;;;;6.00;90.65;97044.09;5049931;28;20205;-76
2023/03/04 05:46:52;;;;;;;23.17;14.70;;;;;;;6.10;90.22;97040.38;5057616;28;20549;-72
2023/03/04 05:49:19;;;;;;;25.53;15.13;;;;;;;6.13;90.44;97039.44;5080010;28;20207;-71
2023/03/04 05:51:46;;;;;;;22.23;13.87;;;;;;;6.18;90.75;97041.00;5090216;28;20202;-73
2023/03/04 05:54:13;;;;;;;28.17;15.33;;;;;;;6.33;90.44;97040.56;5089236;28;20190;-74
2023/03/04 05:56:41;;;;;;;26.87;15.00;;;;;;;6.21;90.40;97038.34;5068789;28;20193;-73
2023/03/04 05:59:08;;;;;;;25.50;14.97;;;;;;;6.04;90.23;97035.41;5050923;28;20655;-75
2023/03/04 06:01:35;;;;;;;26.20;16.03;;;;;;;6.24;90.33;97038.28;5069021;28;20215;-72
2023/03/04 06:04:02;;;;;;;29.70;16.40;;;;;;;6.33;90.19;97045.72;5051410;28;20285;-72
2023/03/04 06:06:29;;;;;;;28.20;16.23;;;;;;;6.43;89.46;97030.84;5034062;28;20180;-73
2023/03/04 06:08:56;;;;;;;27.43;15.83;;;;;;;6.39;89.00;97037.81;5069759;28;20197;-73
2023/03/04 06:11:23;;;;;;;23.63;14.63;;;;;;;6.46;89.33;97041.91;5061906;28;20251;-72
2023/03/04 06:13:50;;;;;;;24.33;14.97;;;;;;;6.56;89.03;97039.88;5073696;28;20199;-76
2023/03/04 06:16:17;;;;;;;26.17;15.40;;;;;;;6.51;88.03;97031.47;5072403;28;20951;-73
2023/03/04 06:18:44;;;;;;;27.20;15.83;;;;;;;6.61;88.58;97045.75;5057532;28;20586;-72
2023/03/04 06:21:11;;;;;;;27.07;16.53;;;;;;;6.61;88.52;97050.88;5048759;28;20295;-72
2023/03/04 06:23:38;;;;;;;33.17;19.07;;;;;;;6.63;88.24;97056.84;5048177;28;20238;-73
2023/03/04 06:26:08;;;;;;;30.00;18.97;;;;;;;6.61;88.60;97045.75;5047760;28;20224;-73
2023/03/04 06:28:35;;;;;;;21.97;14.77;;;;;;;6.43;89.30;97053.97;5039855;28;20285;-73
2023/03/04 06:31:02;;;;;;;23.03;14.83;;;;;;;6.38;88.96;97059.28;5036259;28;20220;-72
2023/03/04 06:33:29;;;;;;;17.60;12.27;;;;;;;6.58;88.98;97058.69;5068069;28;20226;-74
2023/03/04 06:35:56;;;;;;;21.13;12.20;;;;;;;6.55;87.75;97038.22;5068841;28;20250;-74
2023/03/04 06:38:24;;;;;;;23.93;12.50;;;;;;;6.68;87.59;97069.56;5068138;28;20224;-73
2023/03/04 06:40:52;;;;;;;19.23;12.40;;;;;;;6.86;86.47;97063.84;5068218;28;20887;-72
2023/03/04 06:43:22;;;;;;;20.53;11.87;;;;;;;7.06;87.05;97066.66;5050533;28;20195;-72
2023/03/04 06:45:49;;;;;;;19.60;12.30;;;;;;;7.25;86.03;97062.59;5067423;28;20177;-73
2023/03/04 06:48:16;;;;;;;17.53;12.20;;;;;;;7.10;85.16;97047.63;5068643;28;20277;-74
2023/03/04 06:50:43;;;;;;;19.30;12.93;;;;;;;7.26;84.95;97067.69;5067757;28;20595;-74
2023/03/04 06:53:10;;;;;;;20.47;12.57;;;;;;;7.33;84.34;97065.75;5068398;28;20306;-77
2023/03/04 06:55:37;;;;;;;25.07;13.30;;;;;;;7.36;85.06;97065.66;5050234;28;20243;-72
2023/03/04 06:58:04;;;;;;;19.43;12.60;;;;;;;7.65;84.65;97070.69;5060989;28;20228;-75
2023/03/04 07:00:32;;;;;;;20.67;11.97;;;;;;;7.48;83.62;97083.28;5067861;28;20196;-72
2023/03/04 07:02:59;;;;;;;20.27;11.83;;;;;;;7.62;84.32;97075.97;5066534;28;20199;-73
2023/03/04 07:05:27;;;;;;;19.27;12.17;;;;;;;7.62;83.58;97070.81;5050040;28;20195;-73
2023/03/04 07:07:54;;;;;;;21.47;13.27;;;;;;;7.71;83.00;97073.06;5067246;28;20309;-77
2023/03/04 07:10:24;;;;;;;20.80;13.10;;;;;;;7.53;82.98;97065.09;5067521;28;20197;-77
2023/03/04 07:12:51;;;;;;;25.63;15.63;;;;;;;7.61;83.03;97076.84;5067718;28;20665;-78
2023/03/04 07:15:18;;;;;;;24.87;15.07;;;;;;;7.68;83.68;97072.31;5067582;28;20188;-77
2023/03/04 07:17:45;;;;;;;24.23;14.30;;;;;;;7.60;83.36;97059.72;5050002;28;20288;-78
2023/03/04 07:20:13;;;;;;;25.47;13.77;;;;;;;7.58;83.63;97070.94;5048950;28;20735;-73
2023/03/04 07:22:40;;;;;;;22.53;13.93;;;;;;;7.48;84.65;97069.56;5068048;28;20184;-77
2023/03/04 07:25:07;;;;;;;21.40;14.90;;;;;;;7.49;84.29;97068.66;5066624;28;20226;-76
2023/03/04 07:27:34;;;;;;;24.40;14.80;;;;;;;7.54;84.67;97072.78;5049927;28;20201;-74
2023/03/04 07:30:02;;;;;;;24.87;14.73;;;;;;;7.61;84.84;97066.53;5048614;28;20292;-77
2023/03/04 07:32:33;;;;;;;25.43;14.33;;;;;;;7.54;84.32;97046.19;5066707;28;20651;-77
2023/03/04 07:35:01;;;;;;;21.93;13.53;;;;;;;7.71;83.98;97067.91;5067414;28;20245;-78
2023/03/04 07:37:29;;;;;;;26.93;14.37;;;;;;;7.62;84.92;97063.06;5048805;28;20193;-73
2023/03/04 07:39:56;;;;;;;34.63;17.27;;;;;;;7.78;84.93;97063.38;5067199;28;20199;-74
2023/03/04 07:42:23;;;;;;;26.57;15.73;;;;;;;7.57;84.30;97051.22;5066166;28;20670;-76
2023/03/04 07:44:58;;;;;;;25.67;15.73;;;;;;;7.50;84.95;97066.03;5049550;28;20593;-76
2023/03/04 07:47:26;;;;;;;28.67;17.40;;;;;;;7.54;85.51;97062.50;5066563;28;20184;-75
2023/03/04 07:49:55;;;;;;;30.57;17.00;;;;;;;7.77;85.60;97049.63;5068225;28;20202;-76
2023/03/04 07:52:22;;;;;;;26.70;16.17;;;;;;;7.66;84.05;97056.06;5049444;28;20188;-74
2023/03/04 07:54:49;;;;;;;26.13;14.80;;;;;;;7.58;84.41;97053.75;5065896;28;20283;-76
2023/03/04 07:57:16;;;;;;;31.30;16.30;;;;;;;7.66;84.58;97048.34;5067175;28;20200;-76
2023/03/04 07:59:43;;;;;;;23.03;15.13;;;;;;;7.59;84.78;97055.44;5065641;28;20230;-76
2023/03/04 08:02:10;;;;;;;26.10;15.23;;;;;;;7.65;84.92;97055.22;5066883;28;20193;-77
2023/03/04 08:04:37;;;;;;;26.80;15.90;;;;;;;7.59;84.19;97015.94;5066171;28;20190;-76
2023/03/04 08:07:04;;;;;;;25.43;14.77;;;;;;;7.88;84.01;97054.44;5066227;28;20532;-74
2023/03/04 08:09:31;;;;;;;26.20;15.00;;;;;;;8.10;83.64;97055.34;5048565;28;20203;-75
2023/03/04 08:11:58;;;;;;;22.73;14.60;;;;;;;8.15;82.30;97043.13;5065617;28;20185;-77
2023/03/04 08:14:25;;;;;;;24.20;14.70;;;;;;;8.13;82.50;97058.69;5048673;28;20744;-73
2023/03/04 08:16:52;;;;;;;27.47;15.23;;;;;;;8.33;82.01;97062.28;5065130;28;20197;-76
2023/03/04 08:19:19;;;;;;;29.90;17.67;;;;;;;8.51;82.22;97059.06;5077748;28;20256;-77
2023/03/04 08:21:46;;;;;;;33.63;20.17;;;;;;;8.48;82.10;97064.31;5047876;28;20182;-72
2023/03/04 08:24:14;;;;;;;28.27;16.30;;;;;;;8.67;80.93;97057.56;5079053;28;20205;-74
2023/03/04 08:26:45;;;;;;;30.77;17.60;;;;;;;8.69;81.35;97048.88;5086517;28;20188;-73
2023/03/04 08:29:16;;;;;;;31.27;17.73;;;;;;;8.87;80.32;97061.06;5085922;28;20184;-74
2023/03/04 08:31:45;;;;;;;30.50;16.13;;;;;;;8.94;80.05;97046.19;5068158;28;20270;-76
2023/03/04 08:34:16;;;;;;;30.80;16.77;;;;;;;9.11;79.63;97053.28;5027639;28;20186;-74
2023/03/04 08:36:43;;;;;;;30.43;15.43;;;;;;;9.15;78.88;97053.06;5046301;28;20193;-72
2023/03/04 08:39:14;;;;;;;26.17;15.03;;;;;;;9.23;78.66;97053.63;5027438;28;20233;-73
2023/03/04 08:41:41;;;;;;;27.00;15.90;;;;;;;9.31;77.59;97045.56;5071391;28;20603;-74
2023/03/04 08:44:09;;;;;;;23.37;14.63;;;;;;;9.31;77.28;97051.56;5086585;28;20234;-75
2023/03/04 08:46:38;;;;;;;24.83;15.10;;;;;;;9.39;77.13;97054.69;5085909;28;20242;-73
2023/03/04 08:49:06;;;;;;;27.50;17.20;;;;;;;9.13;78.49;97046.31;5086305;28;20249;-72
2023/03/04 08:51:34;;;;;;;25.83;15.00;;;;;;;9.22;77.99;97051.94;5084729;28;20588;-74
2023/03/04 08:54:02;;;;;;;24.57;15.00;;;;;;;9.34;77.66;97048.00;5067940;28;20189;-74
2023/03/04 08:56:30;;;;;;;27.60;15.33;;;;;;;9.46;77.08;97042.34;5067699;28;20184;-73
2023/03/04 08:58:57;;;;;;;24.80;14.30;;;;;;;9.58;76.58;97040.06;5077464;28;20700;-78
2023/03/04 09:01:24;;;;;;;25.30;16.37;;;;;;;9.90;75.92;97043.88;5065722;28;20217;-75
2023/03/04 09:03:51;;;;;;;27.17;16.40;;;;;;;10.05;75.34;97030.28;5030936;28;20201;-74
2023/03/04 09:06:19;;;;;;;21.10;13.17;;;;;;;9.78;73.59;97037.50;5049307;28;20632;-72
2023/03/04 09:09:26;;;;;;;21.60;12.80;;;;;;;9.73;73.80;97039.44;5050594;28;20205;-77
2023/03/04 09:12:07;;;;;;;18.90;12.47;;;;;;;8.96;76.01;97044.38;5068475;28;20189;-75
2023/03/04 09:14:34;;;;;;;22.33;13.70;;;;;;;8.72;76.54;97034.97;5069778;28;20630;-74
2023/03/04 09:17:03;;;;;;;20.23;12.97;;;;;;;8.92;76.56;97038.47;5050762;28;20193;-76
2023/03/04 09:19:31;;;;;;;16.57;9.90;;;;;;;8.84;75.91;97009.53;5052236;28;20298;-74
2023/03/04 09:21:58;;;;;;;15.37;8.93;;;;;;;9.12;75.04;97031.69;5049579;28;20188;-75
2023/03/04 09:24:28;;;;;;;20.57;11.13;;;;;;;9.14;76.03;97035.03;5050656;28;20262;-77
2023/03/04 09:26:55;;;;;;;18.80;11.33;;;;;;;9.24;75.72;97026.88;5032897;28;20316;-74
2023/03/04 09:29:23;;;;;;;16.63;10.13;;;;;;;9.44;75.22;97029.47;5067796;28;20272;-75
2023/03/04 09:31:50;;;;;;;18.00;9.30;;;;;;;9.12;75.66;97017.03;5068350;28;20290;-76
2023/03/04 09:34:17;;;;;;;17.10;9.80;;;;;;;9.15;75.77;97029.81;5067507;28;20677;-75
2023/03/04 09:36:45;;;;;;;13.50;9.27;;;;;;;9.10;77.04;97026.59;5050307;28;20573;-77
2023/03/04 09:39:12;;;;;;;17.43;9.60;;;;;;;9.35;75.84;97029.00;5067277;28;20727;-74
2023/03/04 09:41:44;;;;;;;20.23;10.37;;;;;;;9.11;77.30;97028.25;5068081;28;20189;-75
2023/03/04 09:44:35;;;;;;;18.10;11.57;;;;;;;9.43;76.68;97025.22;5066954;28;20216;-76
2023/03/04 09:47:10;;;;;;;12.90;8.90;;;;;;;9.37;76.47;97016.88;5050184;28;20194;-75
2023/03/04 09:49:44;;;;;;;13.30;8.37;;;;;;;9.20;76.16;97017.56;5068902;28;20188;-74
2023/03/04 09:52:20;;;;;;;17.77;11.10;;;;;;;9.24;76.46;97007.94;5032495;28;20201;-76
2023/03/04 09:55:05;;;;;;;12.90;7.70;;;;;;;9.50;75.64;97016.28;5033542;28;20284;-75
2023/03/04 09:57:44;;;;;;;15.53;8.50;;;;;;;9.65;75.51;97005.31;5067013;28;20190;-75
2023/03/04 10:00:18;;;;;;;15.17;9.80;;;;;;;9.74;74.63;96999.75;5048778;28;20228;-76
2023/03/04 10:03:03;;;;;;;15.83;10.53;;;;;;;10.06;74.62;96992.31;5067711;28;20280;-75
2023/03/04 10:05:36;;;;;;;25.77;10.23;;;;;;;10.31;74.37;96993.78;5066472;28;20212;-77
2023/03/04 10:08:23;;;;;;;16.50;10.70;;;;;;;10.32;72.88;96992.88;5067646;28;20242;-74
2023/03/04 10:10:53;;;;;;;11.07;7.97;;;;;;;9.92;72.73;96985.16;5049163;28;20246;-74
2023/03/04 10:13:39;;;;;;;12.07;7.83;;;;;;;10.07;73.31;96981.06;5048277;28;20237;-73
2023/03/04 10:16:46;;;;;;;16.87;8.93;;;;;;;10.05;73.05;96986.31;5066662;28;20213;-75
2023/03/04 10:19:49;;;;;;;13.93;8.83;;;;;;;10.09;72.15;96984.41;5032862;28;20915;-74
2023/03/04 10:22:31;;;;;;;15.23;9.17;;;;;;;10.14;71.83;96977.34;5031621;28;20224;-75
2023/03/04 10:25:09;;;;;;;16.00;9.93;;;;;;;9.97;72.73;96969.44;5068542;28;20193;-73
2023/03/04 10:27:36;;;;;;;17.93;8.70;;;;;;;10.21;72.17;96965.78;5067026;28;20281;-75
2023/03/04 10:30:17;;;;;;;11.97;8.20;;;;;;;10.36;73.20;96957.31;5068380;28;20193;-75
2023/03/04 10:32:46;;;;;;;17.77;8.97;;;;;;;10.38;72.68;96955.50;5068114;28;20732;-73
2023/03/04 10:35:14;;;;;;;20.73;9.00;;;;;;;10.59;72.18;96944.16;5068322;28;20277;-73
2023/03/04 10:37:48;;;;;;;16.00;8.07;;;;;;;10.73;71.17;96951.25;5051173;28;20189;-75
2023/03/04 10:40:24;;;;;;;15.20;8.50;;;;;;;10.88;71.50;96953.13;5049203;28;20225;-74
2023/03/04 10:42:53;;;;;;;13.23;8.07;;;;;;;10.84;70.08;96951.59;5067905;28;20185;-74
2023/03/04 10:45:23;;;;;;;11.63;7.40;;;;;;;10.73;70.08;96946.09;5067276;28;20187;-74
2023/03/04 10:47:52;;;;;;;11.93;7.53;;;;;;;10.38;70.79;96924.44;5049284;28;20189;-72
2023/03/04 10:50:26;;;;;;;9.63;6.87;;;;;;;10.41;69.58;96921.69;5049992;28;20590;-76
2023/03/04 10:52:55;;;;;;;9.57;5.97;;;;;;;10.21;67.87;96911.44;5066909;28;20191;-73
2023/03/04 10:55:28;;;;;;;15.47;7.80;;;;;;;10.48;67.69;96925.69;5067854;28;20191;-75
2023/03/04 10:58:03;;;;;;;10.60;6.87;;;;;;;10.01;69.50;96896.81;5047938;28;20205;-76
2023/03/04 11:00:35;;;;;;;12.93;7.13;;;;;;;10.35;69.50;96927.16;5047630;28;20223;-75
2023/03/04 11:03:21;;;;;;;13.93;8.43;;;;;;;10.39;68.61;96911.44;5072867;28;20188;-73
2023/03/04 11:05:49;;;;;;;15.27;7.10;;;;;;;10.66;68.67;96909.28;5079668;28;20193;-73
2023/03/04 11:08:18;;;;;;;14.07;6.97;;;;;;;10.59;67.79;96908.72;5082084;28;20196;-73
2023/03/04 11:10:46;;;;;;;12.50;7.63;;;;;;;10.28;68.31;96895.53;5086730;28;20311;-73
2023/03/04 11:13:21;;;;;;;13.67;6.90;;;;;;;10.33;68.75;96900.50;5049633;28;20293;-74
2023/03/04 11:16:01;;;;;;;12.30;7.37;;;;;;;10.33;69.64;96895.34;5049904;28;20197;-74
2023/03/04 11:18:45;;;;;;;16.57;8.43;;;;;;;10.65;68.93;96889.47;5047202;28;20196;-76
2023/03/04 11:21:21;;;;;;;15.07;8.43;;;;;;;10.60;68.38;96850.00;5047934;28;20225;-76
2023/03/04 11:23:59;;;;;;;14.27;8.90;;;;;;;10.65;69.07;96886.91;5046559;28;20188;-73
2023/03/04 11:26:45;;;;;;;11.50;7.13;;;;;;;10.63;69.14;96889.53;5047549;28;20186;-72
2023/03/04 11:29:15;;;;;;;16.80;8.57;;;;;;;10.51;70.09;96884.09;5047111;28;20285;-74
2023/03/04 11:31:55;;;;;;;11.07;7.60;;;;;;;10.31;71.71;96881.63;5049250;28;20259;-75
2023/03/04 11:34:52;;;;;;;13.60;8.30;;;;;;;10.18;72.00;96876.19;5065417;28;20296;-73
2023/03/04 11:37:32;;;;;;;15.50;7.90;;;;;;;10.11;72.68;96873.97;5065204;28;20201;-74